sensor_id;sensor_type;location;lat;lon;timestamp;temperature;humidity
1680;DHT22;838;51.794;12.258;2022-09-30T00:01:47;7.20;50.30
1680;DHT22;838;51.794;12.258;2022-09-30T00:04:23;7.20;52.10
1680;DHT22;838;51.794;12.258;2022-09-30T00:06:50;7.20;51.70
1680;DHT22;838;51.794;12.258;2022-09-30T00:09:17;7.10;52.20
1680;DHT22;838;51.794;12.258;2022-09-30T00:11:42;7.10;50.90
1680;DHT22;838;51.794;12.258;2022-09-30T00:14:15;6.90;53.10
1680;DHT22;838;51.794;12.258;2022-09-30T00:16:41;6.80;53.50
1680;DHT22;838;51.794;12.258;2022-09-30T00:19:07;6.90;52.90
1680;DHT22;838;51.794;12.258;2022-09-30T00:21:33;7.10;52.60
1680;DHT22;838;51.794;12.258;2022-09-30T00:23:59;7.20;52.30
1680;DHT22;838;51.794;12.258;2022-09-30T00:26:25;7.40;52.50
1680;DHT22;838;51.794;12.258;2022-09-30T00:28:53;7.70;48.50
1680;DHT22;838;51.794;12.258;2022-09-30T00:31:21;7.70;45.30
1680;DHT22;838;51.794;12.258;2022-09-30T00:33:47;7.80;44.40
1680;DHT22;838;51.794;12.258;2022-09-30T00:36:43;7.80;43.10
1680;DHT22;838;51.794;12.258;2022-09-30T00:39:28;7.80;42.80
1680;DHT22;838;51.794;12.258;2022-09-30T00:42:00;7.90;42.20
1680;DHT22;838;51.794;12.258;2022-09-30T00:47:35;8.00;39.40
1680;DHT22;838;51.794;12.258;2022-09-30T00:55:41;6.70;44.60
1680;DHT22;838;51.794;12.258;2022-09-30T00:58:11;5.90;55.20
1680;DHT22;838;51.794;12.258;2022-09-30T01:00:40;5.60;62.40
1680;DHT22;838;51.794;12.258;2022-09-30T01:03:05;5.40;68.10
1680;DHT22;838;51.794;12.258;2022-09-30T01:05:32;5.40;70.70
1680;DHT22;838;51.794;12.258;2022-09-30T01:08:00;5.50;72.30
1680;DHT22;838;51.794;12.258;2022-09-30T01:10:28;5.90;72.80
1680;DHT22;838;51.794;12.258;2022-09-30T01:12:54;6.40;66.40
1680;DHT22;838;51.794;12.258;2022-09-30T01:15:24;6.10;60.40
1680;DHT22;838;51.794;12.258;2022-09-30T01:18:15;6.40;63.00
1680;DHT22;838;51.794;12.258;2022-09-30T01:26:15;7.10;50.80
1680;DHT22;838;51.794;12.258;2022-09-30T01:29:12;7.20;50.10
1680;DHT22;838;51.794;12.258;2022-09-30T01:39:50;7.30;41.40
1680;DHT22;838;51.794;12.258;2022-09-30T01:45:36;6.80;43.40
1680;DHT22;838;51.794;12.258;2022-09-30T01:50:23;6.10;51.50
1680;DHT22;838;51.794;12.258;2022-09-30T01:52:55;5.90;54.00
1680;DHT22;838;51.794;12.258;2022-09-30T01:56:20;5.70;54.90
1680;DHT22;838;51.794;12.258;2022-09-30T02:01:15;5.30;60.30
1680;DHT22;838;51.794;12.258;2022-09-30T02:03:52;5.20;61.90
1680;DHT22;838;51.794;12.258;2022-09-30T02:06:24;5.40;63.90
1680;DHT22;838;51.794;12.258;2022-09-30T02:09:12;5.60;60.20
1680;DHT22;838;51.794;12.258;2022-09-30T02:11:40;5.90;62.60
1680;DHT22;838;51.794;12.258;2022-09-30T02:14:19;6.20;57.80
1680;DHT22;838;51.794;12.258;2022-09-30T02:16:57;6.10;55.30
1680;DHT22;838;51.794;12.258;2022-09-30T02:19:34;6.10;52.90
1680;DHT22;838;51.794;12.258;2022-09-30T02:22:11;6.10;53.70
1680;DHT22;838;51.794;12.258;2022-09-30T02:24:39;6.20;51.80
1680;DHT22;838;51.794;12.258;2022-09-30T02:27:17;6.50;49.10
1680;DHT22;838;51.794;12.258;2022-09-30T02:29:47;6.80;47.30
1680;DHT22;838;51.794;12.258;2022-09-30T02:32:23;6.90;43.60
1680;DHT22;838;51.794;12.258;2022-09-30T02:35:08;6.70;43.10
1680;DHT22;838;51.794;12.258;2022-09-30T02:37:40;6.60;43.30
1680;DHT22;838;51.794;12.258;2022-09-30T02:40:36;6.40;45.00
1680;DHT22;838;51.794;12.258;2022-09-30T02:43:04;6.40;44.80
1680;DHT22;838;51.794;12.258;2022-09-30T02:46:02;6.50;44.40
1680;DHT22;838;51.794;12.258;2022-09-30T02:51:18;6.40;42.80
1680;DHT22;838;51.794;12.258;2022-09-30T02:59:11;5.60;51.90
1680;DHT22;838;51.794;12.258;2022-09-30T03:01:37;5.70;53.00
1680;DHT22;838;51.794;12.258;2022-09-30T03:04:08;6.00;48.90
1680;DHT22;838;51.794;12.258;2022-09-30T03:06:35;6.10;47.80
1680;DHT22;838;51.794;12.258;2022-09-30T03:09:02;6.30;49.30
1680;DHT22;838;51.794;12.258;2022-09-30T03:11:29;6.40;43.70
1680;DHT22;838;51.794;12.258;2022-09-30T03:26:03;6.30;42.30
1680;DHT22;838;51.794;12.258;2022-09-30T03:31:49;6.60;38.90
1680;DHT22;838;51.794;12.258;2022-09-30T03:34:45;6.40;39.30
1680;DHT22;838;51.794;12.258;2022-09-30T03:42:25;5.20;50.30
1680;DHT22;838;51.794;12.258;2022-09-30T03:47:24;4.80;58.60
1680;DHT22;838;51.794;12.258;2022-09-30T03:49:53;4.90;59.10
1680;DHT22;838;51.794;12.258;2022-09-30T03:52:21;5.20;58.20
1680;DHT22;838;51.794;12.258;2022-09-30T03:55:00;5.60;55.70
1680;DHT22;838;51.794;12.258;2022-09-30T03:57:27;6.00;50.40
1680;DHT22;838;51.794;12.258;2022-09-30T03:59:57;6.40;47.90
1680;DHT22;838;51.794;12.258;2022-09-30T04:02:24;6.40;45.20
1680;DHT22;838;51.794;12.258;2022-09-30T04:04:50;6.70;43.00
1680;DHT22;838;51.794;12.258;2022-09-30T04:07:16;6.50;41.10
1680;DHT22;838;51.794;12.258;2022-09-30T04:09:41;6.10;42.30
1680;DHT22;838;51.794;12.258;2022-09-30T04:12:07;6.10;42.70
1680;DHT22;838;51.794;12.258;2022-09-30T04:14:33;6.20;41.40
1680;DHT22;838;51.794;12.258;2022-09-30T04:16:59;6.00;43.80
1680;DHT22;838;51.794;12.258;2022-09-30T04:19:25;6.20;44.90
1680;DHT22;838;51.794;12.258;2022-09-30T04:21:54;6.10;43.00
1680;DHT22;838;51.794;12.258;2022-09-30T04:24:21;6.20;42.50
1680;DHT22;838;51.794;12.258;2022-09-30T04:26:47;5.80;48.00
1680;DHT22;838;51.794;12.258;2022-09-30T04:29:13;5.70;53.40
1680;DHT22;838;51.794;12.258;2022-09-30T04:31:38;5.90;48.80
1680;DHT22;838;51.794;12.258;2022-09-30T04:34:04;5.90;47.60
1680;DHT22;838;51.794;12.258;2022-09-30T04:36:30;6.20;43.40
1680;DHT22;838;51.794;12.258;2022-09-30T04:38:56;6.20;40.10
1680;DHT22;838;51.794;12.258;2022-09-30T04:41:22;6.10;38.90
1680;DHT22;838;51.794;12.258;2022-09-30T04:43:48;5.90;40.50
1680;DHT22;838;51.794;12.258;2022-09-30T04:46:15;6.00;42.00
1680;DHT22;838;51.794;12.258;2022-09-30T04:48:41;6.00;42.00
1680;DHT22;838;51.794;12.258;2022-09-30T04:51:10;6.20;40.40
1680;DHT22;838;51.794;12.258;2022-09-30T04:53:36;6.10;40.50
1680;DHT22;838;51.794;12.258;2022-09-30T04:56:01;5.80;39.80
1680;DHT22;838;51.794;12.258;2022-09-30T04:58:28;5.60;42.80
1680;DHT22;838;51.794;12.258;2022-09-30T05:01:08;5.70;43.10
1680;DHT22;838;51.794;12.258;2022-09-30T05:03:34;5.90;39.20
1680;DHT22;838;51.794;12.258;2022-09-30T05:06:01;5.50;45.50
1680;DHT22;838;51.794;12.258;2022-09-30T05:08:27;5.50;45.80
1680;DHT22;838;51.794;12.258;2022-09-30T05:10:57;5.60;48.60
1680;DHT22;838;51.794;12.258;2022-09-30T05:13:31;5.80;43.40
1680;DHT22;838;51.794;12.258;2022-09-30T05:15:57;5.50;39.60
1680;DHT22;838;51.794;12.258;2022-09-30T05:18:23;4.90;44.40
1680;DHT22;838;51.794;12.258;2022-09-30T05:20:55;4.80;44.80
1680;DHT22;838;51.794;12.258;2022-09-30T05:23:25;4.30;48.90
1680;DHT22;838;51.794;12.258;2022-09-30T05:25:52;3.90;56.60
1680;DHT22;838;51.794;12.258;2022-09-30T05:28:17;3.70;62.30
1680;DHT22;838;51.794;12.258;2022-09-30T05:30:44;3.60;66.40
1680;DHT22;838;51.794;12.258;2022-09-30T05:33:10;3.60;68.00
1680;DHT22;838;51.794;12.258;2022-09-30T05:35:37;3.70;69.70
1680;DHT22;838;51.794;12.258;2022-09-30T05:38:03;3.60;72.10
1680;DHT22;838;51.794;12.258;2022-09-30T05:40:30;3.90;73.30
1680;DHT22;838;51.794;12.258;2022-09-30T05:42:56;4.00;71.70
1680;DHT22;838;51.794;12.258;2022-09-30T05:45:23;4.20;72.20
1680;DHT22;838;51.794;12.258;2022-09-30T05:47:52;4.30;69.70
1680;DHT22;838;51.794;12.258;2022-09-30T05:50:20;4.50;67.90
1680;DHT22;838;51.794;12.258;2022-09-30T05:52:46;4.70;63.90
1680;DHT22;838;51.794;12.258;2022-09-30T05:55:12;4.40;64.40
1680;DHT22;838;51.794;12.258;2022-09-30T05:57:38;4.20;67.80
1680;DHT22;838;51.794;12.258;2022-09-30T06:00:05;4.00;71.20
1680;DHT22;838;51.794;12.258;2022-09-30T06:02:31;4.00;74.70
1680;DHT22;838;51.794;12.258;2022-09-30T06:04:56;4.10;77.80
1680;DHT22;838;51.794;12.258;2022-09-30T06:07:22;4.40;78.70
1680;DHT22;838;51.794;12.258;2022-09-30T06:09:47;4.60;76.40
1680;DHT22;838;51.794;12.258;2022-09-30T06:12:14;4.80;76.40
1680;DHT22;838;51.794;12.258;2022-09-30T06:14:39;4.90;74.60
1680;DHT22;838;51.794;12.258;2022-09-30T06:17:05;5.10;73.90
1680;DHT22;838;51.794;12.258;2022-09-30T06:19:31;5.10;72.30
1680;DHT22;838;51.794;12.258;2022-09-30T06:21:57;5.10;73.10
1680;DHT22;838;51.794;12.258;2022-09-30T06:24:23;5.30;75.20
1680;DHT22;838;51.794;12.258;2022-09-30T06:26:48;5.50;73.90
1680;DHT22;838;51.794;12.258;2022-09-30T06:29:14;5.90;74.50
1680;DHT22;838;51.794;12.258;2022-09-30T06:31:40;6.20;71.40
1680;DHT22;838;51.794;12.258;2022-09-30T06:34:05;6.50;66.40
1680;DHT22;838;51.794;12.258;2022-09-30T06:36:32;6.60;65.60
1680;DHT22;838;51.794;12.258;2022-09-30T06:39:02;6.80;64.90
1680;DHT22;838;51.794;12.258;2022-09-30T06:41:28;7.00;64.70
1680;DHT22;838;51.794;12.258;2022-09-30T06:43:55;7.50;61.80
1680;DHT22;838;51.794;12.258;2022-09-30T06:46:21;7.60;58.00
1680;DHT22;838;51.794;12.258;2022-09-30T06:48:54;7.80;55.30
1680;DHT22;838;51.794;12.258;2022-09-30T06:51:21;8.00;57.10
1680;DHT22;838;51.794;12.258;2022-09-30T06:53:50;8.30;51.60
1680;DHT22;838;51.794;12.258;2022-09-30T06:56:17;8.30;54.00
1680;DHT22;838;51.794;12.258;2022-09-30T06:58:44;8.50;53.20
1680;DHT22;838;51.794;12.258;2022-09-30T07:01:11;8.80;50.50
1680;DHT22;838;51.794;12.258;2022-09-30T07:03:41;8.80;49.60
1680;DHT22;838;51.794;12.258;2022-09-30T07:06:07;9.20;48.90
1680;DHT22;838;51.794;12.258;2022-09-30T07:08:35;9.30;48.60
1680;DHT22;838;51.794;12.258;2022-09-30T07:11:03;9.60;47.60
1680;DHT22;838;51.794;12.258;2022-09-30T07:13:29;9.80;45.90
1680;DHT22;838;51.794;12.258;2022-09-30T07:15:55;9.70;48.80
1680;DHT22;838;51.794;12.258;2022-09-30T07:18:22;9.70;51.00
1680;DHT22;838;51.794;12.258;2022-09-30T07:20:49;9.80;48.90
1680;DHT22;838;51.794;12.258;2022-09-30T07:23:16;10.00;49.60
1680;DHT22;838;51.794;12.258;2022-09-30T07:26:08;10.30;48.00
1680;DHT22;838;51.794;12.258;2022-09-30T07:28:35;10.70;43.30
1680;DHT22;838;51.794;12.258;2022-09-30T07:31:07;10.80;43.70
1680;DHT22;838;51.794;12.258;2022-09-30T07:33:33;11.00;45.00
1680;DHT22;838;51.794;12.258;2022-09-30T07:36:00;11.50;45.10
1680;DHT22;838;51.794;12.258;2022-09-30T07:38:29;12.10;40.90
1680;DHT22;838;51.794;12.258;2022-09-30T07:41:03;12.50;34.20
1680;DHT22;838;51.794;12.258;2022-09-30T07:43:31;12.20;33.80
1680;DHT22;838;51.794;12.258;2022-09-30T07:46:25;12.30;32.30
1680;DHT22;838;51.794;12.258;2022-09-30T07:48:53;12.20;32.20
1680;DHT22;838;51.794;12.258;2022-09-30T07:51:30;12.30;32.20
1680;DHT22;838;51.794;12.258;2022-09-30T07:53:59;12.20;34.20
1680;DHT22;838;51.794;12.258;2022-09-30T07:56:26;12.00;38.00
1680;DHT22;838;51.794;12.258;2022-09-30T07:58:54;12.30;35.70
1680;DHT22;838;51.794;12.258;2022-09-30T08:01:20;12.30;34.20
1680;DHT22;838;51.794;12.258;2022-09-30T08:03:46;12.00;37.70
1680;DHT22;838;51.794;12.258;2022-09-30T08:06:16;12.10;38.50
1680;DHT22;838;51.794;12.258;2022-09-30T08:08:43;12.50;34.70
1680;DHT22;838;51.794;12.258;2022-09-30T08:11:10;12.50;34.80
1680;DHT22;838;51.794;12.258;2022-09-30T08:13:36;12.90;32.80
1680;DHT22;838;51.794;12.258;2022-09-30T08:16:03;13.50;32.70
1680;DHT22;838;51.794;12.258;2022-09-30T08:18:29;14.20;27.90
1680;DHT22;838;51.794;12.258;2022-09-30T08:20:54;14.20;25.90
1680;DHT22;838;51.794;12.258;2022-09-30T08:23:20;14.00;28.30
1680;DHT22;838;51.794;12.258;2022-09-30T08:25:46;14.00;28.30
1680;DHT22;838;51.794;12.258;2022-09-30T08:28:12;14.00;28.40
1680;DHT22;838;51.794;12.258;2022-09-30T08:30:38;14.10;29.90
1680;DHT22;838;51.794;12.258;2022-09-30T08:33:04;14.60;28.10
1680;DHT22;838;51.794;12.258;2022-09-30T08:35:30;15.10;24.20
1680;DHT22;838;51.794;12.258;2022-09-30T08:37:56;15.30;23.90
1680;DHT22;838;51.794;12.258;2022-09-30T08:40:31;15.50;20.90
1680;DHT22;838;51.794;12.258;2022-09-30T08:43:16;15.20;24.10
1680;DHT22;838;51.794;12.258;2022-09-30T08:48:40;16.00;23.60
1680;DHT22;838;51.794;12.258;2022-09-30T08:51:22;16.90;12.20
1680;DHT22;838;51.794;12.258;2022-09-30T08:53:53;16.80;18.80
1680;DHT22;838;51.794;12.258;2022-09-30T08:56:26;17.60;17.80
1680;DHT22;838;51.794;12.258;2022-09-30T08:58:58;17.60;11.50
1680;DHT22;838;51.794;12.258;2022-09-30T09:01:43;18.20;10.20
1680;DHT22;838;51.794;12.258;2022-09-30T09:04:11;19.30;1.00
1680;DHT22;838;51.794;12.258;2022-09-30T09:06:49;20.80;1.00
1680;DHT22;838;51.794;12.258;2022-09-30T09:09:43;22.00;1.00
1680;DHT22;838;51.794;12.258;2022-09-30T09:17:30;22.40;1.00
1680;DHT22;838;51.794;12.258;2022-09-30T09:22:36;21.00;1.00
1680;DHT22;838;51.794;12.258;2022-09-30T09:25:03;20.00;1.00
1680;DHT22;838;51.794;12.258;2022-09-30T09:27:50;19.30;1.00
1680;DHT22;838;51.794;12.258;2022-09-30T09:30:20;18.30;1.00
1680;DHT22;838;51.794;12.258;2022-09-30T09:32:57;17.30;10.40
1680;DHT22;838;51.794;12.258;2022-09-30T09:38:34;16.50;14.50
1680;DHT22;838;51.794;12.258;2022-09-30T09:51:42;16.70;15.90
1680;DHT22;838;51.794;12.258;2022-09-30T09:54:12;16.80;15.50
1680;DHT22;838;51.794;12.258;2022-09-30T09:56:40;16.60;13.30
1680;DHT22;838;51.794;12.258;2022-09-30T09:59:10;16.60;15.90
1680;DHT22;838;51.794;12.258;2022-09-30T10:01:40;16.40;19.30
1680;DHT22;838;51.794;12.258;2022-09-30T10:06:50;16.70;13.60
1680;DHT22;838;51.794;12.258;2022-09-30T10:09:32;16.80;9.30
1680;DHT22;838;51.794;12.258;2022-09-30T10:17:05;17.30;6.90
1680;DHT22;838;51.794;12.258;2022-09-30T10:19:51;17.50;5.20
1680;DHT22;838;51.794;12.258;2022-09-30T10:22:25;17.80;3.90
1680;DHT22;838;51.794;12.258;2022-09-30T10:25:18;17.70;1.40
1680;DHT22;838;51.794;12.258;2022-09-30T10:27:50;17.70;8.30
1680;DHT22;838;51.794;12.258;2022-09-30T10:30:43;17.80;1.90
1680;DHT22;838;51.794;12.258;2022-09-30T10:33:35;18.00;1.00
1680;DHT22;838;51.794;12.258;2022-09-30T10:38:26;18.00;1.00
1680;DHT22;838;51.794;12.258;2022-09-30T10:40:54;18.10;1.00
1680;DHT22;838;51.794;12.258;2022-09-30T10:43:37;17.70;1.50
1680;DHT22;838;51.794;12.258;2022-09-30T10:46:04;17.30;1.90
1680;DHT22;838;51.794;12.258;2022-09-30T10:48:37;17.20;3.70
1680;DHT22;838;51.794;12.258;2022-09-30T10:51:05;17.40;1.00
1680;DHT22;838;51.794;12.258;2022-09-30T10:53:41;17.60;1.00
1680;DHT22;838;51.794;12.258;2022-09-30T10:56:08;17.70;1.50
1680;DHT22;838;51.794;12.258;2022-09-30T10:59:09;17.70;1.00
1680;DHT22;838;51.794;12.258;2022-09-30T11:01:39;17.60;1.00
1680;DHT22;838;51.794;12.258;2022-09-30T11:10:05;17.80;1.00
1680;DHT22;838;51.794;12.258;2022-09-30T11:12:43;18.00;1.00
1680;DHT22;838;51.794;12.258;2022-09-30T11:15:31;18.10;1.00
1680;DHT22;838;51.794;12.258;2022-09-30T11:18:17;18.10;1.00
1680;DHT22;838;51.794;12.258;2022-09-30T11:21:00;17.90;1.00
1680;DHT22;838;51.794;12.258;2022-09-30T11:40:29;18.50;1.00
1680;DHT22;838;51.794;12.258;2022-09-30T11:43:16;18.60;1.00
1680;DHT22;838;51.794;12.258;2022-09-30T11:53:42;18.70;1.00
1680;DHT22;838;51.794;12.258;2022-09-30T11:58:50;18.80;1.00
1680;DHT22;838;51.794;12.258;2022-09-30T12:04:11;18.60;1.00
1680;DHT22;838;51.794;12.258;2022-09-30T12:06:49;18.70;1.00
1680;DHT22;838;51.794;12.258;2022-09-30T12:09:26;18.70;1.00
1680;DHT22;838;51.794;12.258;2022-09-30T12:11:59;18.50;1.00
1680;DHT22;838;51.794;12.258;2022-09-30T12:14:34;18.00;1.00
1680;DHT22;838;51.794;12.258;2022-09-30T12:17:05;17.90;1.00
1680;DHT22;838;51.794;12.258;2022-09-30T12:19:46;17.80;1.00
1680;DHT22;838;51.794;12.258;2022-09-30T12:22:17;18.00;1.00
1680;DHT22;838;51.794;12.258;2022-09-30T12:24:44;18.00;1.00
1680;DHT22;838;51.794;12.258;2022-09-30T12:27:24;18.10;1.00
1680;DHT22;838;51.794;12.258;2022-09-30T12:29:57;18.20;1.00
1680;DHT22;838;51.794;12.258;2022-09-30T12:48:47;19.10;1.00
1680;DHT22;838;51.794;12.258;2022-09-30T12:51:34;19.10;1.00
1680;DHT22;838;51.794;12.258;2022-09-30T12:54:13;19.20;1.00
1680;DHT22;838;51.794;12.258;2022-09-30T12:56:45;19.20;1.00
1680;DHT22;838;51.794;12.258;2022-09-30T12:59:14;19.30;1.00
1680;DHT22;838;51.794;12.258;2022-09-30T13:01:42;19.20;1.00
1680;DHT22;838;51.794;12.258;2022-09-30T13:04:09;19.30;1.00
1680;DHT22;838;51.794;12.258;2022-09-30T13:11:42;19.20;1.00
1680;DHT22;838;51.794;12.258;2022-09-30T13:14:13;19.10;1.00
1680;DHT22;838;51.794;12.258;2022-09-30T13:17:20;19.10;1.00
1680;DHT22;838;51.794;12.258;2022-09-30T13:19:49;19.30;1.00
1680;DHT22;838;51.794;12.258;2022-09-30T13:27:45;19.10;1.00
1680;DHT22;838;51.794;12.258;2022-09-30T13:32:42;19.30;1.00
1680;DHT22;838;51.794;12.258;2022-09-30T13:43:23;19.50;1.00
1680;DHT22;838;51.794;12.258;2022-09-30T13:45:52;19.40;1.00
1680;DHT22;838;51.794;12.258;2022-09-30T13:48:31;19.30;1.00
1680;DHT22;838;51.794;12.258;2022-09-30T13:50:59;19.20;1.00
1680;DHT22;838;51.794;12.258;2022-09-30T13:53:32;19.20;1.00
1680;DHT22;838;51.794;12.258;2022-09-30T13:56:05;19.00;1.00
1680;DHT22;838;51.794;12.258;2022-09-30T14:15:35;19.10;1.00
1680;DHT22;838;51.794;12.258;2022-09-30T14:23:16;20.00;1.00
1680;DHT22;838;51.794;12.258;2022-09-30T14:31:24;19.70;1.00
1680;DHT22;838;51.794;12.258;2022-09-30T14:33:50;19.60;1.00
1680;DHT22;838;51.794;12.258;2022-09-30T14:36:19;19.40;1.00
1680;DHT22;838;51.794;12.258;2022-09-30T14:38:51;19.30;1.00
1680;DHT22;838;51.794;12.258;2022-09-30T14:41:23;19.40;1.00
1680;DHT22;838;51.794;12.258;2022-09-30T14:43:56;19.60;1.00
1680;DHT22;838;51.794;12.258;2022-09-30T14:46:36;19.50;1.00
1680;DHT22;838;51.794;12.258;2022-09-30T14:49:06;19.70;1.00
1680;DHT22;838;51.794;12.258;2022-09-30T14:51:38;19.50;1.00
1680;DHT22;838;51.794;12.258;2022-09-30T14:54:18;19.20;1.00
1680;DHT22;838;51.794;12.258;2022-09-30T14:56:44;19.30;1.00
1680;DHT22;838;51.794;12.258;2022-09-30T14:59:18;19.30;1.00
1680;DHT22;838;51.794;12.258;2022-09-30T15:01:49;19.30;1.00
1680;DHT22;838;51.794;12.258;2022-09-30T15:04:23;19.40;1.00
1680;DHT22;838;51.794;12.258;2022-09-30T15:06:51;19.40;1.00
1680;DHT22;838;51.794;12.258;2022-09-30T15:12:21;19.30;1.00
1680;DHT22;838;51.794;12.258;2022-09-30T15:14:56;19.30;1.00
1680;DHT22;838;51.794;12.258;2022-09-30T15:17:26;19.30;1.00
1680;DHT22;838;51.794;12.258;2022-09-30T15:19:53;19.50;1.00
1680;DHT22;838;51.794;12.258;2022-09-30T15:22:21;19.50;1.00
1680;DHT22;838;51.794;12.258;2022-09-30T15:24:47;19.40;1.00
1680;DHT22;838;51.794;12.258;2022-09-30T15:27:34;19.30;1.00
1680;DHT22;838;51.794;12.258;2022-09-30T15:30:21;19.30;1.00
1680;DHT22;838;51.794;12.258;2022-09-30T15:32:47;19.10;1.00
1680;DHT22;838;51.794;12.258;2022-09-30T15:35:15;18.90;1.00
1680;DHT22;838;51.794;12.258;2022-09-30T15:37:42;18.80;1.00
1680;DHT22;838;51.794;12.258;2022-09-30T15:40:15;18.90;1.00
1680;DHT22;838;51.794;12.258;2022-09-30T15:43:12;18.90;1.00
1680;DHT22;838;51.794;12.258;2022-09-30T15:45:45;18.80;1.00
1680;DHT22;838;51.794;12.258;2022-09-30T15:50:52;19.00;1.00
1680;DHT22;838;51.794;12.258;2022-09-30T15:56:24;18.90;1.00
1680;DHT22;838;51.794;12.258;2022-09-30T15:58:56;18.70;1.00
1680;DHT22;838;51.794;12.258;2022-09-30T16:07:16;18.60;1.00
1680;DHT22;838;51.794;12.258;2022-09-30T16:10:39;18.60;1.00
1680;DHT22;838;51.794;12.258;2022-09-30T16:12:56;18.60;1.00
1680;DHT22;838;51.794;12.258;2022-09-30T16:15:51;18.70;1.00
1680;DHT22;838;51.794;12.258;2022-09-30T16:18:40;18.80;1.00
1680;DHT22;838;51.794;12.258;2022-09-30T16:27:23;18.70;1.00
1680;DHT22;838;51.794;12.258;2022-09-30T16:29:55;18.60;1.00
1680;DHT22;838;51.794;12.258;2022-09-30T16:35:38;17.90;1.00
1680;DHT22;838;51.794;12.258;2022-09-30T16:38:41;17.70;1.00
1680;DHT22;838;51.794;12.258;2022-09-30T16:41:25;17.60;1.00
1680;DHT22;838;51.794;12.258;2022-09-30T16:43:50;17.50;1.00
1680;DHT22;838;51.794;12.258;2022-09-30T16:46:16;17.40;1.00
1680;DHT22;838;51.794;12.258;2022-09-30T16:48:41;17.30;1.00
1680;DHT22;838;51.794;12.258;2022-09-30T16:51:12;17.00;1.00
1680;DHT22;838;51.794;12.258;2022-09-30T16:53:38;16.60;1.00
1680;DHT22;838;51.794;12.258;2022-09-30T16:56:05;16.20;1.00
1680;DHT22;838;51.794;12.258;2022-09-30T16:58:31;16.00;1.00
1680;DHT22;838;51.794;12.258;2022-09-30T17:00:57;15.80;1.00
1680;DHT22;838;51.794;12.258;2022-09-30T17:03:25;15.40;2.00
1680;DHT22;838;51.794;12.258;2022-09-30T17:05:51;14.90;7.20
1680;DHT22;838;51.794;12.258;2022-09-30T17:08:21;14.50;11.20
1680;DHT22;838;51.794;12.258;2022-09-30T17:10:48;14.40;13.40
1680;DHT22;838;51.794;12.258;2022-09-30T17:13:16;14.20;14.80
1680;DHT22;838;51.794;12.258;2022-09-30T17:15:46;14.00;17.40
1680;DHT22;838;51.794;12.258;2022-09-30T17:18:12;13.60;19.70
1680;DHT22;838;51.794;12.258;2022-09-30T17:20:42;13.30;22.20
1680;DHT22;838;51.794;12.258;2022-09-30T17:23:08;13.10;24.20
1680;DHT22;838;51.794;12.258;2022-09-30T17:25:38;13.00;24.80
1680;DHT22;838;51.794;12.258;2022-09-30T17:28:05;13.10;25.20
1680;DHT22;838;51.794;12.258;2022-09-30T17:30:32;13.00;26.60
1680;DHT22;838;51.794;12.258;2022-09-30T17:32:57;12.60;28.50
1680;DHT22;838;51.794;12.258;2022-09-30T17:35:23;12.40;31.10
1680;DHT22;838;51.794;12.258;2022-09-30T17:37:49;12.00;33.90
1680;DHT22;838;51.794;12.258;2022-09-30T17:40:15;11.80;36.40
1680;DHT22;838;51.794;12.258;2022-09-30T17:42:59;11.60;38.80
1680;DHT22;838;51.794;12.258;2022-09-30T17:45:39;11.30;41.50
1680;DHT22;838;51.794;12.258;2022-09-30T17:48:06;11.20;43.30
1680;DHT22;838;51.794;12.258;2022-09-30T17:50:37;10.90;45.00
1680;DHT22;838;51.794;12.258;2022-09-30T17:53:04;10.80;46.00
1680;DHT22;838;51.794;12.258;2022-09-30T17:55:30;10.80;46.80
1680;DHT22;838;51.794;12.258;2022-09-30T17:57:58;10.70;46.60
1680;DHT22;838;51.794;12.258;2022-09-30T18:00:26;10.70;47.10
1680;DHT22;838;51.794;12.258;2022-09-30T18:02:53;10.70;46.60
1680;DHT22;838;51.794;12.258;2022-09-30T18:05:19;10.80;45.80
1680;DHT22;838;51.794;12.258;2022-09-30T18:07:45;11.00;43.50
1680;DHT22;838;51.794;12.258;2022-09-30T18:10:11;10.90;42.60
1680;DHT22;838;51.794;12.258;2022-09-30T18:12:37;10.90;43.10
1680;DHT22;838;51.794;12.258;2022-09-30T18:15:03;10.80;43.70
1680;DHT22;838;51.794;12.258;2022-09-30T18:17:29;10.60;44.80
1680;DHT22;838;51.794;12.258;2022-09-30T18:19:55;10.40;46.00
1680;DHT22;838;51.794;12.258;2022-09-30T18:22:21;10.40;48.00
1680;DHT22;838;51.794;12.258;2022-09-30T18:24:46;10.20;49.00
1680;DHT22;838;51.794;12.258;2022-09-30T18:27:30;10.30;48.40
1680;DHT22;838;51.794;12.258;2022-09-30T18:30:02;10.50;45.80
1680;DHT22;838;51.794;12.258;2022-09-30T18:32:29;10.50;45.50
1680;DHT22;838;51.794;12.258;2022-09-30T18:34:55;10.60;45.40
1680;DHT22;838;51.794;12.258;2022-09-30T18:37:25;10.80;43.10
1680;DHT22;838;51.794;12.258;2022-09-30T18:39:52;10.90;41.60
1680;DHT22;838;51.794;12.258;2022-09-30T18:42:18;10.90;40.20
1680;DHT22;838;51.794;12.258;2022-09-30T18:44:45;11.00;38.70
1680;DHT22;838;51.794;12.258;2022-09-30T18:47:10;11.00;38.90
1680;DHT22;838;51.794;12.258;2022-09-30T18:49:36;10.80;39.80
1680;DHT22;838;51.794;12.258;2022-09-30T18:52:02;10.80;40.50
1680;DHT22;838;51.794;12.258;2022-09-30T18:54:29;10.60;41.90
1680;DHT22;838;51.794;12.258;2022-09-30T18:56:55;10.40;43.40
1680;DHT22;838;51.794;12.258;2022-09-30T18:59:20;10.20;45.30
1680;DHT22;838;51.794;12.258;2022-09-30T19:01:46;10.10;47.60
1680;DHT22;838;51.794;12.258;2022-09-30T19:04:12;10.20;47.30
1680;DHT22;838;51.794;12.258;2022-09-30T19:06:40;10.10;47.70
1680;DHT22;838;51.794;12.258;2022-09-30T19:09:06;10.10;46.90
1680;DHT22;838;51.794;12.258;2022-09-30T19:11:35;10.10;46.70
1680;DHT22;838;51.794;12.258;2022-09-30T19:14:02;10.10;46.50
1680;DHT22;838;51.794;12.258;2022-09-30T19:16:29;10.10;47.20
1680;DHT22;838;51.794;12.258;2022-09-30T19:18:58;10.00;47.40
1680;DHT22;838;51.794;12.258;2022-09-30T19:21:26;9.90;50.10
1680;DHT22;838;51.794;12.258;2022-09-30T19:23:52;9.90;50.70
1680;DHT22;838;51.794;12.258;2022-09-30T19:26:24;9.90;50.40
1680;DHT22;838;51.794;12.258;2022-09-30T19:28:52;9.90;50.90
1680;DHT22;838;51.794;12.258;2022-09-30T19:31:19;9.80;50.60
1680;DHT22;838;51.794;12.258;2022-09-30T19:33:46;9.70;51.10
1680;DHT22;838;51.794;12.258;2022-09-30T19:36:13;9.50;53.70
1680;DHT22;838;51.794;12.258;2022-09-30T19:38:40;9.40;56.40
1680;DHT22;838;51.794;12.258;2022-09-30T19:41:07;9.30;57.30
1680;DHT22;838;51.794;12.258;2022-09-30T19:43:34;9.30;58.50
1680;DHT22;838;51.794;12.258;2022-09-30T19:46:04;9.30;59.50
1680;DHT22;838;51.794;12.258;2022-09-30T19:48:33;9.30;58.60
1680;DHT22;838;51.794;12.258;2022-09-30T19:51:06;9.00;59.60
1680;DHT22;838;51.794;12.258;2022-09-30T19:53:43;8.80;62.80
1680;DHT22;838;51.794;12.258;2022-09-30T19:56:15;8.70;65.10
1680;DHT22;838;51.794;12.258;2022-09-30T19:58:43;8.60;67.40
1680;DHT22;838;51.794;12.258;2022-09-30T20:01:11;8.50;67.30
1680;DHT22;838;51.794;12.258;2022-09-30T20:03:37;8.40;67.90
1680;DHT22;838;51.794;12.258;2022-09-30T20:06:07;8.20;71.00
1680;DHT22;838;51.794;12.258;2022-09-30T20:09:01;8.00;74.30
1680;DHT22;838;51.794;12.258;2022-09-30T20:11:31;8.10;75.40
1680;DHT22;838;51.794;12.258;2022-09-30T20:13:58;8.20;74.90
1680;DHT22;838;51.794;12.258;2022-09-30T20:16:43;8.30;73.80
1680;DHT22;838;51.794;12.258;2022-09-30T20:19:10;8.40;72.00
1680;DHT22;838;51.794;12.258;2022-09-30T20:21:36;8.60;67.90